International Virtual Aviation Organisation

Eastern Europe and Northern Asia MCD

 
UUDL 121100Z 14004MPS 100V170 CAVOK 18/M01 Q1033 R23/010060 NOSIG RMK QFE767
QNH:(hPa/inHg/mmHg)1033 / 30.5 / 775
QFE:(hPa/inHg/mmHg)1022 / 30.17 / 766
Temperature18
Dew Point-1
Visibility> 10000
WeatherCAVOK
Cloud Cover
Transition Height700 m./2700 ft.
Transition LevelFL40
SQUAWK